Terminal Aerodrome Forecast
Issued by NWS Hastings, NE

Home | Current Version | Previous Version | Text Only | Print | Product List | Glossary On
Versions: 1 2 3 4 5 6 7 8 9 10 11 12 13 14 15 16 17 18 19 20 21 22 23 24 25 26 27 28 29 30 31 32 33 34 35 36 37 38 39 40 41 42 43 44 45 46 47
000
FTUS45 KGID 200520
TAFEAR
TAF
KEAR 200520Z 2006/2106 17007KT P6SM SCT150
     FM201000 19009KT P6SM BKN100
     FM201400 23012KT P6SM SCT120
     FM201600 29012KT P6SM SCT150
     FM202000 36010KT P6SM FEW150
     FM210000 06007KT P6SM SCT100=

USA.gov is the U.S. government's official web portal to all federal, state and local government web resources and services.